Huvudsida
METAR-TAF:

METAR-TAF

Flygplatser :

Ahwaz International Airport

Ahvaz, Iran

latitud: 31-20N, longitud: 048-40E, höjd: 20 m

Aktuellt väderrapport

Denna rapport gjordes för 56 minuter sedan, klockan 03:30 UTC
Stilla vind
Temperatur 7°C
Fuktighet 93%
Tryck 1014 hPa
Sikt: 6000 m

METAR: OIAW 200330Z 00000KT 6000 NSC 07/06 Q1014

Tid: 07:56 (04:26 UTC)

Väderprognos

Denna rapport gjordes för 5 timmar och 26 minuter sedan, klockan 23:00 UTC
Prognos gäller från 20 kl. 00 UTC till 21 kl. 06 UTC
Vind 8 kt från väst
Sikt: 8000 m

TAF: OIAW 192300Z 2000/2106 28008KT 8000 NSC

Aktuella väderrapporter och prognoser från 4000 flygplatser (METAR- och TAF-rapporter).

De tillgängliga stationerna syns som gula och röda prickar på kartan.

För musen över prickarna för att se namnen på stationerna.

Klicka sedan för att få väderrapporter och prognoser.

För att ändra kartan: Klicka på de gröna knapparna med ett svart kors på för att zooma in; den gröna knappen med ett streck på för att zooma ut; eller på de gröna pilarna för angränsande kartor.


METAR-TAF: